Time;durP1;ratioP1;P1;durP2;ratioP2;P2;SDS_P1;SDS_P2;PMS_P1;PMS_P2;Temp;Humidity;BMP_temperature;BMP_pressure;BME280_temperature;BME280_humidity;BME280_pressure;Samples;Min_cycle;Max_cycle;Signal;HPM_P1;HPM_P2
2023/01/29 00:01:47;;;;;;;;;;;;;;;3.6;99.43359;103066.7;;;;-74
2023/01/29 00:06:50;;;;;;;;;;;;;;;3.6;99.61523;103064.9;;;;-76
2023/01/29 00:11:51;;;;;;;;;;;;;;;3.59;99.73242;103074.9;;;;-74
2023/01/29 00:16:50;;;;;;;;;;;;;;;3.59;99.84961;103067.1;;;;-75
2023/01/29 00:18:43;;;;;;;8.3;3.9;;;;;;;;;;;;;-75
2023/01/29 00:21:50;;;;;;;;;;;;;;;3.6;99.55273;103055.3;;;;-74
2023/01/29 00:26:48;;;;;;;;;;;;;;;3.59;99.63672;103043.8;;;;-76
2023/01/29 00:31:48;;;;;;;;;;;;;;;3.57;99.81445;103038.7;;;;-74
2023/01/29 00:36:50;;;;;;;;;;;;;;;3.59;99.5918;103050.1;;;;-75
2023/01/29 00:46:49;;;;;;;;;;;;;;;3.59;99.81934;103047.3;;;;-75
2023/01/29 00:48:37;;;;;;;8.5;4;;;;;;;;;;;;;-74
2023/01/29 00:52:22;;;;;;;;;;;;;;;3.58;99.79492;103053.1;;;;-76
2023/01/29 00:56:47;;;;;;;;;;;;;;;3.58;99.73047;103052.9;;;;-75
2023/01/29 01:06:50;;;;;;;;;;;;;;;3.58;100;103047.7;;;;-75
2023/01/29 01:11:47;;;;;;;;;;;;;;;3.59;99.8623;103053.2;;;;-75
2023/01/29 01:16:47;;;;;;;;;;;;;;;3.6;99.84277;103049.6;;;;-74
2023/01/29 01:18:37;;;;;;;8.2;4.4;;;;;;;;;;;;;-75
2023/01/29 01:21:49;;;;;;;;;;;;;;;3.6;99.80176;103047.4;;;;-76
2023/01/29 01:26:47;;;;;;;;;;;;;;;3.59;99.91797;103047.9;;;;-74
2023/01/29 01:31:48;;;;;;;;;;;;;;;3.59;100;103052.8;;;;-75
2023/01/29 01:36:54;;;;;;;;;;;;;;;3.59;100;103045.5;;;;-74
2023/01/29 01:41:48;;;;;;;;;;;;;;;3.6;99.93164;103038.9;;;;-74
2023/01/29 01:46:50;;;;;;;;;;;;;;;3.61;99.86621;103039.8;;;;-75
2023/01/29 01:48:37;;;;;;;9.4;4.6;;;;;;;;;;;;;-74
2023/01/29 01:51:51;;;;;;;;;;;;;;;3.59;100;103040.7;;;;-77
2023/01/29 01:56:51;;;;;;;;;;;;;;;3.57;100;103033.6;;;;-75
2023/01/29 02:01:50;;;;;;;;;;;;;;;3.59;99.9375;103033.4;;;;-75
2023/01/29 02:11:47;;;;;;;;;;;;;;;3.55;100;103046.9;;;;-76
2023/01/29 02:16:49;;;;;;;;;;;;;;;3.56;99.96191;103047.8;;;;-74
2023/01/29 02:18:42;;;;;;;10.7;5;;;;;;;;;;;;;-77
2023/01/29 02:22:06;;;;;;;;;;;;;;;3.54;100;103057.3;;;;-74
2023/01/29 02:26:53;;;;;;;;;;;;;;;3.52;100;103056.4;;;;-75
2023/01/29 02:31:51;;;;;;;;;;;;;;;3.51;100;103041.7;;;;-76
2023/01/29 02:36:49;;;;;;;;;;;;;;;3.5;99.9834;103033.1;;;;-74
2023/01/29 02:46:51;;;;;;;;;;;;;;;3.48;99.76074;103027.4;;;;-74
2023/01/29 02:48:43;;;;;;;9.5;5;;;;;;;;;;;;;-76
2023/01/29 02:51:52;;;;;;;;;;;;;;;3.49;99.73047;103024.5;;;;-75
2023/01/29 02:56:53;;;;;;;;;;;;;;;3.48;99.91211;103022.5;;;;-74
2023/01/29 03:01:50;;;;;;;;;;;;;;;3.48;100;103017.7;;;;-75
2023/01/29 03:06:58;;;;;;;;;;;;;;;3.47;99.97559;103009.1;;;;-74
2023/01/29 03:11:51;;;;;;;;;;;;;;;3.48;99.73926;103005;;;;-75
2023/01/29 03:16:53;;;;;;;;;;;;;;;3.47;99.91016;103003.9;;;;-75
2023/01/29 03:18:44;;;;;;;12.7;5.6;;;;;;;;;;;;;-76
2023/01/29 03:21:58;;;;;;;;;;;;;;;3.44;100;102995.5;;;;-77
2023/01/29 03:36:49;;;;;;;;;;;;;;;3.48;99.99902;102969.5;;;;-74
2023/01/29 03:41:51;;;;;;;;;;;;;;;3.48;99.83691;102976;;;;-74
2023/01/29 03:46:52;;;;;;;;;;;;;;;3.48;99.93457;102974;;;;-77
2023/01/29 03:48:39;;;;;;;14.1;6.6;;;;;;;;;;;;;-73
2023/01/29 03:52:00;;;;;;;;;;;;;;;3.48;99.8584;102980.7;;;;-74
2023/01/29 03:56:58;;;;;;;;;;;;;;;3.48;99.93457;102969.7;;;;-76
2023/01/29 04:01:51;;;;;;;;;;;;;;;3.48;99.76074;102965.6;;;;-75
2023/01/29 04:06:58;;;;;;;;;;;;;;;3.48;99.91211;102945;;;;-75
2023/01/29 04:11:50;;;;;;;;;;;;;;;3.49;99.71777;102949.6;;;;-75
2023/01/29 04:16:51;;;;;;;;;;;;;;;3.48;99.79395;102949.3;;;;-75
2023/01/29 04:18:38;;;;;;;14.4;7.3;;;;;;;;;;;;;-75
2023/01/29 04:21:48;;;;;;;;;;;;;;;3.49;99.72266;102947.2;;;;-74
2023/01/29 04:26:59;;;;;;;;;;;;;;;3.51;99.59473;102944.5;;;;-75
2023/01/29 04:31:55;;;;;;;;;;;;;;;3.51;99.65918;102937.2;;;;-75
2023/01/29 04:37:06;;;;;;;;;;;;;;;3.51;99.61621;102921.4;;;;-76
2023/01/29 04:41:52;;;;;;;;;;;;;;;3.52;99.65039;102910.7;;;;-75
2023/01/29 04:48:46;;;;;;;17.9;8.7;;;;;;;;;;;;;-76
2023/01/29 04:51:55;;;;;;;;;;;;;;;3.53;99.4707;102903.3;;;;-73
2023/01/29 04:56:52;;;;;;;;;;;;;;;3.53;99.56836;102905.2;;;;-74
2023/01/29 05:01:48;;;;;;;;;;;;;;;3.54;99.375;102914.6;;;;-75
2023/01/29 05:06:48;;;;;;;;;;;;;;;3.54;99.57031;102925;;;;-75
2023/01/29 05:11:53;;;;;;;;;;;;;;;3.55;99.35352;102913.5;;;;-74
2023/01/29 05:16:54;;;;;;;;;;;;;;;3.55;99.44043;102909.2;;;;-76
2023/01/29 05:18:50;;;;;;;19;9.3;;;;;;;;;;;;;-75
2023/01/29 05:21:48;;;;;;;;;;;;;;;3.55;99.4209;102902.7;;;;-74
2023/01/29 05:31:47;;;;;;;;;;;;;;;3.56;99.57227;102899.4;;;;-75
2023/01/29 05:36:48;;;;;;;;;;;;;;;3.55;99.51855;102894.8;;;;-75
2023/01/29 05:41:50;;;;;;;;;;;;;;;3.57;99.58496;102889;;;;-74
2023/01/29 05:46:47;;;;;;;;;;;;;;;3.57;99.58496;102879.7;;;;-76
2023/01/29 05:48:38;;;;;;;22.6;9.8;;;;;;;;;;;;;-76
2023/01/29 05:51:50;;;;;;;;;;;;;;;3.57;99.5957;102879;;;;-74
2023/01/29 05:56:50;;;;;;;;;;;;;;;3.57;99.40527;102873.3;;;;-76
2023/01/29 06:01:47;;;;;;;;;;;;;;;3.57;99.55469;102864.1;;;;-76
2023/01/29 06:06:47;;;;;;;;;;;;;;;3.55;99.55078;102845.8;;;;-74
2023/01/29 06:11:49;;;;;;;;;;;;;;;3.57;99.52441;102851.8;;;;-74
2023/01/29 06:18:40;;;;;;;21.7;9.9;;;;;;;;;;;;;-73
2023/01/29 06:21:48;;;;;;;;;;;;;;;3.58;99.67578;102844.5;;;;-75
2023/01/29 06:26:54;;;;;;;;;;;;;;;3.58;99.56836;102847.2;;;;-76
2023/01/29 06:31:48;;;;;;;;;;;;;;;3.59;99.55664;102850.6;;;;-75
2023/01/29 06:36:59;;;;;;;;;;;;;;;3.59;99.61328;102841.4;;;;-76
2023/01/29 06:41:48;;;;;;;;;;;;;;;3.58;99.56836;102841.3;;;;-75
2023/01/29 06:46:47;;;;;;;;;;;;;;;3.6;99.66895;102838.7;;;;-75
2023/01/29 06:48:45;;;;;;;22.1;10.4;;;;;;;;;;;;;-75
2023/01/29 06:51:50;;;;;;;;;;;;;;;3.59;99.83203;102830;;;;-75
2023/01/29 06:56:51;;;;;;;;;;;;;;;3.59;99.90723;102836.1;;;;-74
2023/01/29 07:01:51;;;;;;;;;;;;;;;3.62;99.90137;102836.8;;;;-75
2023/01/29 07:06:57;;;;;;;;;;;;;;;3.61;100;102833.5;;;;-75
2023/01/29 07:11:47;;;;;;;;;;;;;;;3.6;100;102834.6;;;;-75
2023/01/29 07:16:47;;;;;;;;;;;;;;;3.6;100;102844.7;;;;-75
2023/01/29 07:18:41;;;;;;;23;10.9;;;;;;;;;;;;;-74
2023/01/29 07:21:47;;;;;;;;;;;;;;;3.6;100;102847.2;;;;-75
2023/01/29 07:26:49;;;;;;;;;;;;;;;3.61;100;102845.8;;;;-75
2023/01/29 07:35:22;;;;;;;;;;;;;;;3.6;100;102829.6;;;;-75
2023/01/29 07:40:21;;;;;;;;;;;;;;;3.6;100;102821.8;;;;-75
2023/01/29 07:45:24;;;;;;;;;;;;;;;3.6;100;102807;;;;-75
2023/01/29 07:48:40;;;;;;;26.5;11;;;;;;;;;;;;;-73
2023/01/29 07:50:21;;;;;;;;;;;;;;;3.59;100;102805.8;;;;-75
2023/01/29 07:55:22;;;;;;;;;;;;;;;3.6;100;102807.1;;;;-75
2023/01/29 08:00:21;;;;;;;;;;;;;;;3.6;100;102807.6;;;;-75
2023/01/29 08:05:21;;;;;;;;;;;;;;;3.6;100;102796;;;;-76
2023/01/29 08:10:26;;;;;;;;;;;;;;;3.61;100;102792.3;;;;-76
2023/01/29 08:15:21;;;;;;;;;;;;;;;3.62;100;102787.6;;;;-74
2023/01/29 08:18:47;;;;;;;26.2;12.4;;;;;;;;;;;;;-75
2023/01/29 08:20:26;;;;;;;;;;;;;;;3.63;100;102774.5;;;;-74
2023/01/29 08:25:36;;;;;;;;;;;;;;;3.65;100;102784.3;;;;-74
2023/01/29 08:30:21;;;;;;;;;;;;;;;3.68;100;102778.6;;;;-74
2023/01/29 08:35:21;;;;;;;;;;;;;;;3.7;100;102775.4;;;;-75
2023/01/29 08:40:21;;;;;;;;;;;;;;;3.74;100;102776.7;;;;-74
2023/01/29 08:45:21;;;;;;;;;;;;;;;3.76;100;102771.9;;;;-75
2023/01/29 08:48:40;;;;;;;27;12.5;;;;;;;;;;;;;-76
2023/01/29 08:50:22;;;;;;;;;;;;;;;3.79;100;102771.8;;;;-74
2023/01/29 08:55:22;;;;;;;;;;;;;;;3.81;100;102768.4;;;;-75
2023/01/29 09:00:24;;;;;;;;;;;;;;;3.85;100;102766.5;;;;-74
2023/01/29 09:05:21;;;;;;;;;;;;;;;3.89;100;102767.2;;;;-74
2023/01/29 09:10:24;;;;;;;;;;;;;;;3.96;100;102765.7;;;;-75
2023/01/29 09:15:23;;;;;;;;;;;;;;;4.01;100;102762.3;;;;-76
2023/01/29 09:18:44;;;;;;;26.8;12.1;;;;;;;;;;;;;-76
2023/01/29 09:20:22;;;;;;;;;;;;;;;4.06;100;102755.6;;;;-74
2023/01/29 09:25:23;;;;;;;;;;;;;;;4.11;100;102757.3;;;;-75
2023/01/29 09:30:21;;;;;;;;;;;;;;;4.15;100;102758.8;;;;-74
2023/01/29 09:35:21;;;;;;;;;;;;;;;4.2;100;102757.7;;;;-75
2023/01/29 09:40:26;;;;;;;;;;;;;;;4.24;100;102748;;;;-75
2023/01/29 09:45:24;;;;;;;;;;;;;;;4.28;100;102734.9;;;;-75
2023/01/29 09:48:56;;;;;;;24.6;11.2;;;;;;;;;;;;;-75
2023/01/29 09:54:53;;;;;;;;;;;;;;;4.34;100;102725.6;;;;-75
2023/01/29 09:59:45;;;;;;;;;;;;;;;4.39;100;102718.3;;;;-74
2023/01/29 10:04:55;;;;;;;;;;;;;;;4.43;100;102724.2;;;;-75
2023/01/29 10:14:46;;;;;;;;;;;;;;;4.46;100;102720.4;;;;-75
2023/01/29 10:19:15;;;;;;;19.8;9.3;;;;;;;;;;;;;-74
2023/01/29 10:19:53;;;;;;;;;;;;;;;4.41;100;102709.5;;;;-77
2023/01/29 10:24:44;;;;;;;;;;;;;;;4.46;100;102722.1;;;;-75
2023/01/29 10:29:43;;;;;;;;;;;;;;;4.48;100;102722;;;;-75
2023/01/29 10:39:46;;;;;;;;;;;;;;;4.51;100;102716.7;;;;-74
2023/01/29 10:44:46;;;;;;;;;;;;;;;4.53;100;102697.6;;;;-77
2023/01/29 10:48:51;;;;;;;17.9;7.8;;;;;;;;;;;;;-75
2023/01/29 10:50:02;;;;;;;;;;;;;;;;;;;;;
2023/01/29 10:55:40;;;;;;;;;;;;;;;4.67;100;102678.4;;;;-75
2023/01/29 11:00:25;;;;;;;;;;;;;;;4.69;100;102672;;;;-73
2023/01/29 11:05:28;;;;;;;;;;;;;;;4.71;100;102664.3;;;;-76
2023/01/29 11:10:28;;;;;;;;;;;;;;;4.73;100;102658.1;;;;-75
2023/01/29 11:15:25;;;;;;;;;;;;;;;4.75;100;102651.7;;;;-75
2023/01/29 11:19:01;;;;;;;12.4;5.2;;;;;;;;;;;;;-77
2023/01/29 11:20:30;;;;;;;;;;;;;;;4.77;100;102644.4;;;;-76
2023/01/29 11:25:23;;;;;;;;;;;;;;;4.78;100;102637;;;;-75
2023/01/29 11:30:28;;;;;;;;;;;;;;;4.8;100;102636.3;;;;-76
2023/01/29 11:35:29;;;;;;;;;;;;;;;4.83;100;102628.9;;;;-76
2023/01/29 11:40:41;;;;;;;;;;;;;;;4.85;100;102622.2;;;;-75
2023/01/29 11:45:34;;;;;;;;;;;;;;;4.86;100;102605.8;;;;-78
2023/01/29 11:48:49;;;;;;;7.7;4;;;;;;;;;;;;;-75
2023/01/29 11:50:26;;;;;;;;;;;;;;;4.87;100;102601;;;;-76
2023/01/29 11:55:23;;;;;;;;;;;;;;;4.88;100;102589.8;;;;-75
2023/01/29 12:00:26;;;;;;;;;;;;;;;4.89;100;102590.6;;;;-76
2023/01/29 12:05:28;;;;;;;;;;;;;;;4.91;100;102582.4;;;;-76
2023/01/29 12:10:40;;;;;;;;;;;;;;;4.93;100;102572.7;;;;-76
2023/01/29 12:15:24;;;;;;;;;;;;;;;4.97;100;102563.3;;;;-76
2023/01/29 12:18:43;;;;;;;11.3;4.9;;;;;;;;;;;;;-76
2023/01/29 12:20:29;;;;;;;;;;;;;;;5;100;102546.1;;;;-76
2023/01/29 12:25:34;;;;;;;;;;;;;;;5.04;100;102534.5;;;;-76
2023/01/29 12:30:25;;;;;;;;;;;;;;;5.08;100;102526;;;;-75
2023/01/29 12:35:24;;;;;;;;;;;;;;;5.06;100;102521.3;;;;-75
2023/01/29 12:40:22;;;;;;;;;;;;;;;5.06;100;102500.5;;;;-75
2023/01/29 12:45:24;;;;;;;;;;;;;;;5.03;100;102480.3;;;;-74
2023/01/29 12:48:45;;;;;;;18;8.5;;;;;;;;;;;;;-75
2023/01/29 12:50:26;;;;;;;;;;;;;;;5.02;100;102459.6;;;;-74
2023/01/29 12:55:25;;;;;;;;;;;;;;;5;100;102446.7;;;;-74
2023/01/29 13:00:23;;;;;;;;;;;;;;;4.97;100;102440.7;;;;-76
2023/01/29 13:05:25;;;;;;;;;;;;;;;4.98;100;102428.6;;;;-73
2023/01/29 13:10:23;;;;;;;;;;;;;;;4.94;100;102412.9;;;;-74
2023/01/29 13:15:31;;;;;;;;;;;;;;;4.93;100;102412.8;;;;-74
2023/01/29 13:18:50;;;;;;;22.5;10.2;;;;;;;;;;;;;-75
2023/01/29 13:20:25;;;;;;;;;;;;;;;4.91;100;102401.6;;;;-75
2023/01/29 13:25:22;;;;;;;;;;;;;;;4.9;100;102392.8;;;;-75
2023/01/29 13:30:34;;;;;;;;;;;;;;;4.92;100;102387.6;;;;-76
2023/01/29 13:35:24;;;;;;;;;;;;;;;4.95;100;102394.1;;;;-74
2023/01/29 13:40:27;;;;;;;;;;;;;;;4.98;100;102388.3;;;;-74
2023/01/29 13:45:25;;;;;;;;;;;;;;;5.04;100;102382;;;;-74
2023/01/29 13:49:03;;;;;;;15.8;6.6;;;;;;;;;;;;;-74
2023/01/29 13:50:28;;;;;;;;;;;;;;;5.06;100;102376.9;;;;-76
2023/01/29 13:55:30;;;;;;;;;;;;;;;5.11;100;102361;;;;-74
2023/01/29 14:00:33;;;;;;;;;;;;;;;5.13;100;102350.1;;;;-75
2023/01/29 14:05:32;;;;;;;;;;;;;;;5.15;100;102344.3;;;;-74
2023/01/29 14:10:22;;;;;;;;;;;;;;;5.15;100;102336.5;;;;-74
2023/01/29 14:15:25;;;;;;;;;;;;;;;5.14;100;102325.4;;;;-75
2023/01/29 14:18:49;;;;;;;24.8;10.5;;;;;;;;;;;;;-75
2023/01/29 14:20:26;;;;;;;;;;;;;;;5.15;100;102315.3;;;;-74
2023/01/29 14:25:23;;;;;;;;;;;;;;;5.17;100;102314.1;;;;-76
2023/01/29 14:30:22;;;;;;;;;;;;;;;5.18;100;102311.1;;;;-75
2023/01/29 14:35:24;;;;;;;;;;;;;;;5.18;100;102305.3;;;;-75
2023/01/29 14:40:23;;;;;;;;;;;;;;;5.17;100;102299.5;;;;-74
2023/01/29 14:45:31;;;;;;;;;;;;;;;5.14;100;102300.8;;;;-74
2023/01/29 14:48:49;;;;;;;23.5;10.3;;;;;;;;;;;;;-75
2023/01/29 14:50:36;;;;;;;;;;;;;;;5.12;100;102301.3;;;;-75
2023/01/29 14:55:33;;;;;;;;;;;;;;;5.11;100;102290;;;;-75
2023/01/29 15:00:25;;;;;;;;;;;;;;;5.1;100;102289.5;;;;-75
2023/01/29 15:05:24;;;;;;;;;;;;;;;5.09;100;102280.8;;;;-75
2023/01/29 15:10:24;;;;;;;;;;;;;;;5.08;100;102284.1;;;;-75
2023/01/29 15:15:24;;;;;;;;;;;;;;;5.07;100;102286;;;;-74
2023/01/29 15:18:45;;;;;;;24;9.7;;;;;;;;;;;;;-75
2023/01/29 15:20:37;;;;;;;;;;;;;;;5.05;100;102272.5;;;;-75
2023/01/29 15:25:21;;;;;;;;;;;;;;;5.04;100;102272.6;;;;-75
2023/01/29 15:30:22;;;;;;;;;;;;;;;5.02;100;102276.5;;;;-75
2023/01/29 15:35:29;;;;;;;;;;;;;;;5;100;102273.6;;;;-75
2023/01/29 15:40:22;;;;;;;;;;;;;;;4.99;100;102273.3;;;;-76
2023/01/29 15:45:36;;;;;;;;;;;;;;;4.97;100;102266.4;;;;-75
2023/01/29 15:48:47;;;;;;;23.1;9.4;;;;;;;;;;;;;-75
2023/01/29 15:50:21;;;;;;;;;;;;;;;4.96;100;102262.8;;;;-75
2023/01/29 15:55:23;;;;;;;;;;;;;;;4.94;100;102251.9;;;;-75
2023/01/29 16:00:30;;;;;;;;;;;;;;;4.93;100;102250.5;;;;-74
2023/01/29 16:05:22;;;;;;;;;;;;;;;4.93;100;102247.3;;;;-76
2023/01/29 16:10:24;;;;;;;;;;;;;;;4.93;100;102238.9;;;;-75
2023/01/29 16:15:24;;;;;;;;;;;;;;;4.92;100;102234.7;;;;-74
2023/01/29 16:18:50;;;;;;;25.4;8.6;;;;;;;;;;;;;-75
2023/01/29 16:20:27;;;;;;;;;;;;;;;4.91;100;102225;;;;-75
2023/01/29 16:25:24;;;;;;;;;;;;;;;4.91;100;102226.5;;;;-75
2023/01/29 16:30:22;;;;;;;;;;;;;;;4.91;100;102230.2;;;;-76
2023/01/29 16:35:22;;;;;;;;;;;;;;;4.92;100;102232.1;;;;-75
2023/01/29 16:40:31;;;;;;;;;;;;;;;4.92;100;102224.3;;;;-76
2023/01/29 16:45:31;;;;;;;;;;;;;;;4.94;100;102218.8;;;;-75
2023/01/29 16:48:47;;;;;;;23.5;8.1;;;;;;;;;;;;;-74
2023/01/29 16:50:35;;;;;;;;;;;;;;;4.94;100;102218.2;;;;-74
2023/01/29 16:55:27;;;;;;;;;;;;;;;4.93;100;102216.6;;;;-75
2023/01/29 17:00:29;;;;;;;;;;;;;;;4.93;100;102206.4;;;;-75
2023/01/29 17:05:24;;;;;;;;;;;;;;;4.92;100;102185.9;;;;-74
2023/01/29 17:10:24;;;;;;;;;;;;;;;4.91;100;102190;;;;-76
2023/01/29 17:15:33;;;;;;;;;;;;;;;4.91;100;102187.6;;;;-74
2023/01/29 17:18:47;;;;;;;23.2;8.5;;;;;;;;;;;;;-76
2023/01/29 17:20:22;;;;;;;;;;;;;;;4.93;100;102169.2;;;;-75
2023/01/29 17:25:43;;;;;;;;;;;;;;;4.94;100;102162.9;;;;-75
2023/01/29 17:30:36;;;;;;;;;;;;;;;4.94;100;102173.3;;;;-74
2023/01/29 17:35:33;;;;;;;;;;;;;;;4.94;100;102159.6;;;;-76
2023/01/29 17:40:30;;;;;;;;;;;;;;;4.94;100;102146.8;;;;-76
2023/01/29 17:45:21;;;;;;;;;;;;;;;4.94;100;102145.5;;;;-76
2023/01/29 17:48:48;;;;;;;19.9;7.5;;;;;;;;;;;;;-74
2023/01/29 17:50:49;;;;;;;;;;;;;;;4.93;100;102138.2;;;;-75
2023/01/29 17:55:28;;;;;;;;;;;;;;;4.95;100;102142;;;;-74
2023/01/29 18:00:25;;;;;;;;;;;;;;;4.95;100;102130.3;;;;-74
2023/01/29 18:05:22;;;;;;;;;;;;;;;4.95;100;102115;;;;-77
2023/01/29 18:10:23;;;;;;;;;;;;;;;4.95;100;102121.9;;;;-75
2023/01/29 18:15:26;;;;;;;;;;;;;;;4.96;100;102096.5;;;;-77
2023/01/29 18:18:48;;;;;;;19.3;7.1;;;;;;;;;;;;;-76
2023/01/29 18:20:35;;;;;;;;;;;;;;;4.97;100;102078.6;;;;-76
2023/01/29 18:25:21;;;;;;;;;;;;;;;4.94;100;102069.5;;;;-75
2023/01/29 18:30:21;;;;;;;;;;;;;;;4.93;100;102057.8;;;;-75
2023/01/29 18:35:21;;;;;;;;;;;;;;;4.92;100;102041.1;;;;-75
2023/01/29 18:40:28;;;;;;;;;;;;;;;4.93;100;102054.9;;;;-76
2023/01/29 18:48:54;;;;;;;;;;;;;;;4.95;100;102065.9;;;;-75
2023/01/29 18:49:19;;;;;;;22.9;5.9;;;;;;;;;;;;;-75
2023/01/29 18:53:50;;;;;;;;;;;;;;;4.96;100;102064.6;;;;-74
2023/01/29 18:58:46;;;;;;;;;;;;;;;4.96;100;102059.2;;;;-76
2023/01/29 19:03:47;;;;;;;;;;;;;;;4.95;100;102059.1;;;;-76
2023/01/29 19:08:43;;;;;;;;;;;;;;;4.95;100;102027.8;;;;-74
2023/01/29 19:13:44;;;;;;;;;;;;;;;4.92;100;102019.2;;;;-74
2023/01/29 19:18:42;;;;;;;;;;;;;;;4.91;100;102015;;;;-76
2023/01/29 19:18:55;;;;;;;14;5.2;;;;;;;;;;;;;-76
2023/01/29 19:23:52;;;;;;;;;;;;;;;4.9;100;102022.5;;;;-74
2023/01/29 19:28:43;;;;;;;;;;;;;;;4.89;100;102027.2;;;;-74
2023/01/29 19:33:51;;;;;;;;;;;;;;;4.89;100;102032.9;;;;-75
2023/01/29 19:38:47;;;;;;;;;;;;;;;4.91;100;102046;;;;-74
2023/01/29 19:43:45;;;;;;;;;;;;;;;4.92;100;102033.8;;;;-75
2023/01/29 19:48:56;;;;;;;;;;;;;;;4.91;100;102020;;;;-76
2023/01/29 19:49:13;;;;;;;18.5;6.3;;;;;;;;;;;;;-76
2023/01/29 19:53:51;;;;;;;;;;;;;;;4.9;100;102020.3;;;;-74
2023/01/29 19:58:47;;;;;;;;;;;;;;;4.88;100;101983.3;;;;-75
2023/01/29 20:03:45;;;;;;;;;;;;;;;4.87;100;102003.6;;;;-74
2023/01/29 20:08:48;;;;;;;;;;;;;;;4.89;100;102001.4;;;;-74
2023/01/29 20:13:49;;;;;;;;;;;;;;;4.96;100;102008.9;;;;-75
2023/01/29 20:18:46;;;;;;;;;;;;;;;5.04;100;101991.5;;;;-74
2023/01/29 20:18:59;;;;;;;15.2;5;;;;;;;;;;;;;-74
2023/01/29 20:23:45;;;;;;;;;;;;;;;5.12;100;102006;;;;-75
2023/01/29 20:28:42;;;;;;;;;;;;;;;5.19;100;101985.6;;;;-73
2023/01/29 20:33:43;;;;;;;;;;;;;;;5.27;100;101998.1;;;;-75
2023/01/29 20:38:42;;;;;;;;;;;;;;;5.32;100;101980.2;;;;-75
2023/01/29 20:43:49;;;;;;;;;;;;;;;5.39;100;101986.5;;;;-75
2023/01/29 20:48:42;;;;;;;;;;;;;;;5.44;100;101977.5;;;;-75
2023/01/29 20:49:03;;;;;;;11.5;3.6;;;;;;;;;;;;;-75
2023/01/29 20:53:44;;;;;;;;;;;;;;;5.48;100;101971.9;;;;-74
2023/01/29 21:02:00;;;;;;;;;;;;;;;5.56;100;101970.8;;;;-75
2023/01/29 21:06:48;;;;;;;;;;;;;;;5.6;100;101959.3;;;;-74
2023/01/29 21:11:47;;;;;;;;;;;;;;;5.64;100;101967.1;;;;-75
2023/01/29 21:16:46;;;;;;;;;;;;;;;5.68;100;101949.2;;;;-75
2023/01/29 21:18:50;;;;;;;12.1;4.2;;;;;;;;;;;;;-74
2023/01/29 21:21:52;;;;;;;;;;;;;;;5.71;100;101932.8;;;;-74
2023/01/29 21:26:47;;;;;;;;;;;;;;;5.74;100;101902.8;;;;-74
2023/01/29 21:31:57;;;;;;;;;;;;;;;5.77;100;101867.7;;;;-75
2023/01/29 21:36:47;;;;;;;;;;;;;;;5.79;100;101867.8;;;;-74
2023/01/29 21:46:52;;;;;;;;;;;;;;;5.75;100;101831;;;;-73
2023/01/29 21:48:51;;;;;;;13.4;4.3;;;;;;;;;;;;;-76
2023/01/29 21:51:49;;;;;;;;;;;;;;;5.73;100;101859.1;;;;-75
2023/01/29 21:56:49;;;;;;;;;;;;;;;5.71;100;101856.1;;;;-75
2023/01/29 22:01:49;;;;;;;;;;;;;;;5.73;100;101847.6;;;;-75
2023/01/29 22:06:47;;;;;;;;;;;;;;;5.73;100;101850.1;;;;-76
2023/01/29 22:11:47;;;;;;;;;;;;;;;5.74;100;101838.5;;;;-75
2023/01/29 22:16:53;;;;;;;;;;;;;;;5.74;100;101836.6;;;;-74
2023/01/29 22:18:52;;;;;;;11.5;4.1;;;;;;;;;;;;;-74
2023/01/29 22:21:46;;;;;;;;;;;;;;;5.76;100;101837.2;;;;-75
2023/01/29 22:26:53;;;;;;;;;;;;;;;5.77;100;101801.9;;;;-75
2023/01/29 22:31:49;;;;;;;;;;;;;;;5.81;100;101776;;;;-75
2023/01/29 22:36:51;;;;;;;;;;;;;;;5.86;100;101793.7;;;;-75
2023/01/29 22:41:49;;;;;;;;;;;;;;;5.86;100;101799.4;;;;-76
2023/01/29 22:46:49;;;;;;;;;;;;;;;5.94;100;101811.7;;;;-76
2023/01/29 22:48:55;;;;;;;13.2;4;;;;;;;;;;;;;-75
2023/01/29 22:51:46;;;;;;;;;;;;;;;5.97;100;101792.9;;;;-75
2023/01/29 22:56:46;;;;;;;;;;;;;;;6.01;100;101798.2;;;;-75
2023/01/29 23:01:47;;;;;;;;;;;;;;;6.04;100;101790.8;;;;-75
2023/01/29 23:06:47;;;;;;;;;;;;;;;6.05;100;101791.4;;;;-76
2023/01/29 23:11:48;;;;;;;;;;;;;;;6.04;100;101776.1;;;;-75
2023/01/29 23:16:46;;;;;;;;;;;;;;;6.04;100;101764.8;;;;-75
2023/01/29 23:18:52;;;;;;;11.9;3.9;;;;;;;;;;;;;-75
2023/01/29 23:21:48;;;;;;;;;;;;;;;6.08;100;101752.4;;;;-75
2023/01/29 23:31:51;;;;;;;;;;;;;;;6.12;100;101751.1;;;;-74
2023/01/29 23:36:48;;;;;;;;;;;;;;;6.12;100;101743.5;;;;-75
2023/01/29 23:41:49;;;;;;;;;;;;;;;6.13;100;101751.8;;;;-76
2023/01/29 23:46:47;;;;;;;;;;;;;;;6.12;100;101753.3;;;;-74
2023/01/29 23:48:53;;;;;;;10.6;3.4;;;;;;;;;;;;;-75
2023/01/29 23:51:47;;;;;;;;;;;;;;;6.12;100;101750.2;;;;-77
2023/01/29 23:56:47;;;;;;;;;;;;;;;6.12;100;101743.5;;;;-75
